createdAt,value
2019-02-28T00:02:31.132Z,1.17
2019-02-28T00:05:05.841Z,1.60
2019-02-28T00:07:33.467Z,1.50
2019-02-28T00:10:03.050Z,1.45
2019-02-28T00:12:32.564Z,1.20
2019-02-28T00:15:02.027Z,1.12
2019-02-28T00:17:32.468Z,1.17
2019-02-28T00:20:02.081Z,1.52
2019-02-28T00:22:34.579Z,1.77
2019-02-28T00:25:04.970Z,1.50
2019-02-28T00:27:35.136Z,1.37
2019-02-28T00:30:05.956Z,1.07
2019-02-28T00:32:36.386Z,1.40
2019-02-28T00:35:06.741Z,1.45
2019-02-28T00:37:37.372Z,1.50
2019-02-28T00:40:08.211Z,1.55
2019-02-28T00:42:42.788Z,1.10
2019-02-28T00:45:12.861Z,1.42
2019-02-28T00:47:42.316Z,1.50
2019-02-28T00:50:11.906Z,1.30
2019-02-28T00:52:41.295Z,1.12
2019-02-28T00:55:11.059Z,1.25
2019-02-28T00:57:40.938Z,1.50
2019-02-28T01:00:12.085Z,1.27
2019-02-28T01:02:41.694Z,1.45
2019-02-28T01:05:11.292Z,1.47
2019-02-28T01:07:44.303Z,1.07
2019-02-28T01:10:13.631Z,1.32
2019-02-28T01:12:43.116Z,1.10
2019-02-28T01:15:14.090Z,1.17
2019-02-28T01:17:43.543Z,1.22
2019-02-28T01:20:16.044Z,1.30
2019-02-28T01:22:44.283Z,1.22
2019-02-28T01:25:14.327Z,1.10
2019-02-28T01:27:43.779Z,1.12
2019-02-28T01:30:13.592Z,1.25
2019-02-28T01:32:49.850Z,1.02
2019-02-28T01:35:16.881Z,1.37
2019-02-28T01:37:46.822Z,1.00
2019-02-28T01:40:15.207Z,1.20
2019-02-28T01:42:44.766Z,1.07
2019-02-28T01:45:14.390Z,1.60
2019-02-28T01:47:43.938Z,1.25
2019-02-28T01:50:13.717Z,1.05
2019-02-28T01:52:45.893Z,1.02
2019-02-28T01:55:14.604Z,0.98
2019-02-28T01:57:44.448Z,1.25
2019-02-28T02:00:15.117Z,1.17
2019-02-28T02:02:44.644Z,0.98
2019-02-28T02:05:16.873Z,1.27
2019-02-28T02:07:45.647Z,1.22
2019-02-28T02:10:21.786Z,1.32
2019-02-28T02:12:51.520Z,1.00
2019-02-28T02:15:21.132Z,1.20
2019-02-28T02:17:50.698Z,1.30
2019-02-28T02:20:20.131Z,1.20
2019-02-28T02:22:49.670Z,1.15
2019-02-28T02:25:19.458Z,1.20
2019-02-28T02:27:53.011Z,1.22
2019-02-28T02:30:21.982Z,0.90
2019-02-28T02:32:51.503Z,1.15
2019-02-28T02:35:20.939Z,1.00
2019-02-28T02:37:50.867Z,0.90
2019-02-28T02:40:23.087Z,1.00
2019-02-28T02:42:54.083Z,1.10
2019-02-28T02:45:23.592Z,1.02
2019-02-28T02:47:53.062Z,0.75
2019-02-28T02:50:22.632Z,0.88
2019-02-28T02:52:52.623Z,1.17
2019-02-28T02:55:27.987Z,0.75
2019-02-28T02:57:53.395Z,0.90
2019-02-28T03:00:22.887Z,0.95
2019-02-28T03:02:52.585Z,1.10
2019-02-28T03:05:22.058Z,1.00
2019-02-28T03:07:51.569Z,0.80
2019-02-28T03:10:21.185Z,0.93
2019-02-28T03:12:50.645Z,0.88
2019-02-28T03:15:25.461Z,1.07
2019-02-28T03:17:51.560Z,0.90
2019-02-28T03:20:21.225Z,0.95
2019-02-28T03:22:50.795Z,0.90
2019-02-28T03:25:27.758Z,1.10
2019-02-28T03:27:56.504Z,1.20
2019-02-28T03:30:31.081Z,0.90
2019-02-28T03:32:53.881Z,0.90
2019-02-28T03:35:23.327Z,1.32
2019-02-28T03:37:52.856Z,0.93
2019-02-28T03:40:22.368Z,0.70
2019-02-28T03:42:51.827Z,1.07
2019-02-28T03:45:21.347Z,0.90
2019-02-28T03:47:58.479Z,0.90
2019-02-28T03:50:24.713Z,0.90
2019-02-28T03:52:54.234Z,0.90
2019-02-28T03:55:25.831Z,0.90
2019-02-28T03:57:55.057Z,0.75
2019-02-28T04:00:32.327Z,0.80
2019-02-28T04:02:58.670Z,0.80
2019-02-28T04:05:28.440Z,1.00
2019-02-28T04:07:58.162Z,0.70
2019-02-28T04:10:27.944Z,0.95
2019-02-28T04:12:57.493Z,0.68
2019-02-28T04:15:26.985Z,0.90
2019-02-28T04:17:56.604Z,0.90
2019-02-28T04:20:28.068Z,0.72
2019-02-28T04:22:59.953Z,0.60
2019-02-28T04:25:29.541Z,0.95
2019-02-28T04:27:58.994Z,0.80
2019-02-28T04:30:32.470Z,0.70
2019-02-28T04:33:02.573Z,0.60
2019-02-28T04:35:32.159Z,0.50
2019-02-28T04:38:01.757Z,0.90
2019-02-28T04:40:31.361Z,0.72
2019-02-28T04:43:01.089Z,0.80
2019-02-28T04:45:37.995Z,0.90
2019-02-28T04:48:07.441Z,0.65
2019-02-28T04:50:36.948Z,0.40
2019-02-28T04:53:06.470Z,0.82
2019-02-28T04:55:37.318Z,0.80
2019-02-28T04:58:07.199Z,0.65
2019-02-28T05:00:37.864Z,0.62
2019-02-28T05:03:07.840Z,0.60
2019-02-28T05:05:37.496Z,0.70
2019-02-28T05:08:07.019Z,0.80
2019-02-28T05:10:38.634Z,0.50
2019-02-28T05:13:08.098Z,0.40
2019-02-28T05:15:40.369Z,1.00
2019-02-28T05:18:08.939Z,0.65
2019-02-28T05:20:38.400Z,0.70
2019-02-28T05:23:07.877Z,0.57
2019-02-28T05:25:37.385Z,0.50
2019-02-28T05:28:07.557Z,0.80
2019-02-28T05:30:37.091Z,0.50
2019-02-28T05:33:07.379Z,0.53
2019-02-28T05:35:36.968Z,0.60
2019-02-28T05:38:06.457Z,0.70
2019-02-28T05:40:40.563Z,0.57
2019-02-28T05:43:07.595Z,0.47
2019-02-28T05:45:38.863Z,0.60
2019-02-28T05:48:08.445Z,0.68
2019-02-28T05:50:37.962Z,0.62
2019-02-28T05:53:09.444Z,0.60
2019-02-28T05:55:38.802Z,0.62
2019-02-28T05:58:08.538Z,0.93
2019-02-28T06:00:39.383Z,0.50
2019-02-28T06:03:08.994Z,0.50
2019-02-28T06:05:39.025Z,0.50
2019-02-28T06:08:11.196Z,0.60
2019-02-28T06:10:40.662Z,0.65
2019-02-28T06:13:10.328Z,0.70
2019-02-28T06:15:40.916Z,0.82
2019-02-28T06:18:10.363Z,0.65
2019-02-28T06:20:39.982Z,0.70
2019-02-28T06:23:10.159Z,0.50
2019-02-28T06:25:39.893Z,0.68
2019-02-28T06:28:09.551Z,0.70
2019-02-28T06:30:41.514Z,0.90
2019-02-28T06:33:11.392Z,0.65
2019-02-28T06:35:40.846Z,0.70
2019-02-28T06:38:11.005Z,0.95
2019-02-28T06:40:41.115Z,0.98
2019-02-28T06:43:14.198Z,1.22
2019-02-28T06:45:43.746Z,0.93
2019-02-28T06:48:13.239Z,0.88
2019-02-28T06:50:44.648Z,0.90
2019-02-28T06:53:13.929Z,0.82
2019-02-28T06:55:49.325Z,1.20
2019-02-28T06:58:19.134Z,0.98
2019-02-28T07:00:50.417Z,1.05
2019-02-28T07:03:19.828Z,0.80
2019-02-28T07:05:49.540Z,1.00
2019-02-28T07:08:24.266Z,1.00
2019-02-28T07:10:50.368Z,1.27
2019-02-28T07:13:22.374Z,1.12
2019-02-28T07:15:51.846Z,1.30
2019-02-28T07:18:21.405Z,1.10
2019-02-28T07:20:51.035Z,1.05
2019-02-28T07:23:22.202Z,0.98
2019-02-28T07:25:52.446Z,1.65
2019-02-28T07:28:22.022Z,2.05
2019-02-28T07:30:51.533Z,1.98
2019-02-28T07:33:21.255Z,1.80
2019-02-28T07:35:50.780Z,1.80
2019-02-28T07:38:20.279Z,1.92
2019-02-28T07:40:50.415Z,1.80
2019-02-28T07:43:22.000Z,1.90
2019-02-28T07:45:52.275Z,1.57
2019-02-28T07:48:29.974Z,1.50
2019-02-28T07:50:59.280Z,2.05
2019-02-28T07:53:28.869Z,1.37
2019-02-28T07:55:58.334Z,1.50
2019-02-28T07:58:29.868Z,1.50
2019-02-28T08:00:59.097Z,1.65
2019-02-28T08:03:28.588Z,1.10
2019-02-28T08:06:04.518Z,1.67
2019-02-28T08:08:31.977Z,1.40
2019-02-28T08:11:01.756Z,1.57
2019-02-28T08:13:31.397Z,1.62
2019-02-28T08:16:00.927Z,1.27
2019-02-28T08:18:31.660Z,1.12
2019-02-28T08:21:01.401Z,1.60
2019-02-28T08:23:31.369Z,1.12
2019-02-28T08:26:01.058Z,1.27
2019-02-28T08:28:35.831Z,1.32
2019-02-28T08:31:02.741Z,1.10
2019-02-28T08:33:32.199Z,1.22
2019-02-28T08:36:01.860Z,1.15
2019-02-28T08:38:34.278Z,1.27
2019-02-28T08:41:02.915Z,1.45
2019-02-28T08:43:32.426Z,0.90
2019-02-28T08:46:02.881Z,0.80
2019-02-28T08:48:35.532Z,0.82
2019-02-28T08:51:05.335Z,0.68
2019-02-28T08:53:34.948Z,0.93
2019-02-28T08:56:04.704Z,0.80
2019-02-28T08:58:37.774Z,0.80
2019-02-28T09:01:07.799Z,0.68
2019-02-28T09:03:37.363Z,1.20
2019-02-28T09:06:07.512Z,0.80
2019-02-28T09:08:37.185Z,0.90
2019-02-28T09:11:06.775Z,0.88
2019-02-28T09:13:36.345Z,0.62
2019-02-28T09:16:06.278Z,0.70
2019-02-28T09:18:38.174Z,0.70
2019-02-28T09:21:07.678Z,0.68
2019-02-28T09:23:38.407Z,0.85
2019-02-28T09:26:08.535Z,0.78
2019-02-28T09:28:38.206Z,0.90
2019-02-28T09:31:07.799Z,0.60
2019-02-28T09:33:37.410Z,0.90
2019-02-28T09:36:07.024Z,1.12
2019-02-28T09:38:36.674Z,0.60
2019-02-28T09:41:06.321Z,0.90
2019-02-28T09:43:35.876Z,0.70
2019-02-28T09:46:09.078Z,0.90
2019-02-28T09:48:38.823Z,0.60
2019-02-28T09:51:08.602Z,0.75
2019-02-28T09:53:39.051Z,0.50
2019-02-28T09:56:10.244Z,0.68
2019-02-28T09:58:39.926Z,0.90
2019-02-28T10:01:09.539Z,0.70
2019-02-28T10:03:39.087Z,0.60
2019-02-28T10:06:08.767Z,0.60
2019-02-28T10:08:38.238Z,0.60
2019-02-28T10:11:07.752Z,0.85
2019-02-28T10:13:37.295Z,0.70
2019-02-28T10:16:06.856Z,0.62
2019-02-28T10:18:39.002Z,0.78
2019-02-28T10:21:08.866Z,0.78
2019-02-28T10:23:38.370Z,0.55
2019-02-28T10:26:07.967Z,0.50
2019-02-28T10:28:37.565Z,0.62
2019-02-28T10:31:07.143Z,0.40
2019-02-28T10:33:36.713Z,0.70
2019-02-28T10:36:09.208Z,0.70
2019-02-28T10:38:37.486Z,0.50
2019-02-28T10:41:07.044Z,0.70
2019-02-28T10:43:36.598Z,0.47
2019-02-28T10:46:06.144Z,0.72
2019-02-28T10:48:41.859Z,0.60
2019-02-28T10:51:14.074Z,0.53
2019-02-28T10:53:39.370Z,0.65
2019-02-28T10:56:09.765Z,0.70
2019-02-28T10:58:39.337Z,0.85
2019-02-28T11:01:11.373Z,0.60
2019-02-28T11:03:41.050Z,0.70
2019-02-28T11:06:10.528Z,0.60
2019-02-28T11:08:40.127Z,0.88
2019-02-28T11:11:10.540Z,0.70
2019-02-28T11:13:40.930Z,0.70
2019-02-28T11:16:10.425Z,0.60
2019-02-28T11:18:41.946Z,0.70
2019-02-28T11:21:11.897Z,0.78
2019-02-28T11:23:41.916Z,0.90
2019-02-28T11:26:11.770Z,0.60
2019-02-28T11:28:41.338Z,0.50
2019-02-28T11:31:11.272Z,0.70
2019-02-28T11:33:40.795Z,0.60
2019-02-28T11:36:10.561Z,0.50
2019-02-28T11:38:40.148Z,0.70
2019-02-28T11:41:09.639Z,0.60
2019-02-28T11:43:39.253Z,0.72
2019-02-28T11:46:10.257Z,0.60
2019-02-28T11:48:39.921Z,0.45
2019-02-28T11:51:09.446Z,0.90
2019-02-28T11:53:40.307Z,0.80
2019-02-28T11:56:10.305Z,0.70
2019-02-28T11:58:39.958Z,0.70
2019-02-28T12:01:10.481Z,0.80
2019-02-28T12:03:40.998Z,0.93
2019-02-28T12:06:10.494Z,1.07
2019-02-28T12:08:41.552Z,0.60
2019-02-28T12:11:11.240Z,0.70
2019-02-28T12:13:40.712Z,0.70
2019-02-28T12:16:10.237Z,0.70
2019-02-28T12:18:40.874Z,0.88
2019-02-28T12:21:10.685Z,0.70
2019-02-28T12:23:40.197Z,0.68
2019-02-28T12:26:09.785Z,0.80
2019-02-28T12:28:39.390Z,0.72
2019-02-28T12:31:09.248Z,0.55
2019-02-28T12:33:38.746Z,0.70
2019-02-28T12:36:08.174Z,0.60
2019-02-28T12:38:37.738Z,0.78
2019-02-28T12:41:07.602Z,0.68
2019-02-28T12:43:40.574Z,0.53
2019-02-28T12:46:09.761Z,0.40
2019-02-28T12:48:39.231Z,0.50
2019-02-28T12:51:08.844Z,0.60
2019-02-28T12:53:38.341Z,0.98
2019-02-28T12:56:07.829Z,0.85
2019-02-28T12:58:39.158Z,0.95
2019-02-28T13:01:08.951Z,0.82
2019-02-28T13:03:38.504Z,0.60
2019-02-28T13:06:08.026Z,0.93
2019-02-28T13:08:38.654Z,0.95
2019-02-28T13:11:08.899Z,0.80
2019-02-28T13:13:38.445Z,0.88
2019-02-28T13:16:08.017Z,1.10
2019-02-28T13:18:39.581Z,1.05
2019-02-28T13:21:10.649Z,0.85
2019-02-28T13:23:40.273Z,0.98
2019-02-28T13:26:09.972Z,1.02
2019-02-28T13:28:39.573Z,0.93
2019-02-28T13:31:09.291Z,1.37
2019-02-28T13:33:38.838Z,1.00
2019-02-28T13:36:08.906Z,1.30
2019-02-28T13:38:38.471Z,1.20
2019-02-28T13:41:08.051Z,1.10
2019-02-28T13:43:37.629Z,1.47
2019-02-28T13:46:07.181Z,1.00
2019-02-28T13:48:36.650Z,1.00
2019-02-28T13:51:08.532Z,1.10
2019-02-28T13:53:38.316Z,1.15
2019-02-28T13:56:07.965Z,1.15
2019-02-28T13:58:37.458Z,1.42
2019-02-28T14:01:07.490Z,1.17
2019-02-28T14:03:37.221Z,1.20
2019-02-28T14:06:06.788Z,1.00
2019-02-28T14:08:36.364Z,1.07
2019-02-28T14:11:10.279Z,1.00
2019-02-28T14:13:37.392Z,1.10
2019-02-28T14:16:06.993Z,0.98
2019-02-28T14:18:36.490Z,1.32
2019-02-28T14:21:06.217Z,1.25
2019-02-28T14:23:35.794Z,0.90
2019-02-28T14:26:05.444Z,1.02
2019-02-28T14:28:35.625Z,0.90
2019-02-28T14:31:06.194Z,1.10
2019-02-28T14:33:35.668Z,1.10
2019-02-28T14:36:07.452Z,1.25
2019-02-28T14:38:36.735Z,0.93
2019-02-28T14:41:06.434Z,1.10
2019-02-28T14:43:35.926Z,1.02
2019-02-28T14:46:05.665Z,1.25
2019-02-28T14:48:36.667Z,0.98
2019-02-28T14:51:06.602Z,1.10
2019-02-28T14:53:36.243Z,1.15
2019-02-28T14:56:07.278Z,0.93
2019-02-28T14:58:37.142Z,1.35
2019-02-28T15:01:06.776Z,1.12
2019-02-28T15:03:36.842Z,1.17
2019-02-28T15:06:06.422Z,0.90
2019-02-28T15:08:36.072Z,1.00
2019-02-28T15:11:06.540Z,1.05
2019-02-28T15:13:37.302Z,1.07
2019-02-28T15:16:06.909Z,1.00
2019-02-28T15:18:36.431Z,0.90
2019-02-28T15:21:07.497Z,0.82
2019-02-28T15:23:37.288Z,0.72
2019-02-28T15:26:07.158Z,0.62
2019-02-28T15:28:36.650Z,0.70
2019-02-28T15:31:08.676Z,1.07
2019-02-28T15:33:37.557Z,0.80
2019-02-28T15:36:07.088Z,0.60
2019-02-28T15:38:36.741Z,0.70
2019-02-28T15:41:06.391Z,0.72
2019-02-28T15:43:35.967Z,0.60
2019-02-28T15:46:08.572Z,0.90
2019-02-28T15:48:37.049Z,0.62
2019-02-28T15:51:06.739Z,0.62
2019-02-28T15:53:36.468Z,0.70
2019-02-28T15:56:13.052Z,0.78
2019-02-28T15:58:41.198Z,0.90
2019-02-28T16:01:09.376Z,1.10
2019-02-28T16:03:39.086Z,0.90
2019-02-28T16:06:09.661Z,0.75
2019-02-28T16:08:41.908Z,0.90
2019-02-28T16:11:10.825Z,0.90
2019-02-28T16:13:40.463Z,0.85
2019-02-28T16:16:10.024Z,0.90
2019-02-28T16:18:40.678Z,0.90
2019-02-28T16:21:10.238Z,0.62
2019-02-28T16:23:39.958Z,0.88
2019-02-28T16:26:09.960Z,0.75
2019-02-28T16:28:42.360Z,0.78
2019-02-28T16:31:10.845Z,1.27
2019-02-28T16:33:40.347Z,0.90
2019-02-28T16:36:09.878Z,0.70
2019-02-28T16:38:42.402Z,1.05
2019-02-28T16:41:10.958Z,0.80
2019-02-28T16:43:40.477Z,0.85
2019-02-28T16:46:12.411Z,0.80
2019-02-28T16:48:41.346Z,0.70
2019-02-28T16:51:11.281Z,0.95
2019-02-28T16:53:41.772Z,0.88
2019-02-28T16:56:11.313Z,0.80
2019-02-28T16:58:40.858Z,0.80
2019-02-28T17:01:10.592Z,0.60
2019-02-28T17:03:41.771Z,0.80
2019-02-28T17:06:11.549Z,0.78
2019-02-28T17:08:51.549Z,0.90
2019-02-28T17:11:19.954Z,0.60
2019-02-28T17:13:56.880Z,0.70
2019-02-28T17:16:51.508Z,0.88
2019-02-28T17:19:21.178Z,0.70
2019-02-28T17:21:52.291Z,0.80
2019-02-28T17:24:22.050Z,0.62
2019-02-28T17:27:22.766Z,0.60
2019-02-28T17:30:00.094Z,0.60
2019-02-28T17:32:31.218Z,0.85
2019-02-28T17:35:00.444Z,0.68
2019-02-28T17:37:29.967Z,0.80
2019-02-28T17:39:59.638Z,0.60
2019-02-28T17:42:29.443Z,0.60
2019-02-28T17:45:22.745Z,0.75
2019-02-28T17:48:24.431Z,0.88
2019-02-28T17:51:14.999Z,0.68
2019-02-28T17:54:17.288Z,0.65
2019-02-28T17:57:17.791Z,0.65
2019-02-28T18:00:44.997Z,0.80
2019-02-28T18:03:54.719Z,0.50
2019-02-28T18:07:04.868Z,0.72
2019-02-28T18:10:24.342Z,0.70
2019-02-28T18:13:52.163Z,0.40
2019-02-28T18:17:01.270Z,0.60
2019-02-28T18:19:41.572Z,0.72
2019-02-28T18:22:31.867Z,0.72
2019-02-28T18:25:31.548Z,0.62
2019-02-28T18:28:09.654Z,0.50
2019-02-28T18:31:05.985Z,0.70
2019-02-28T18:33:36.043Z,0.60
2019-02-28T18:36:09.191Z,0.40
2019-02-28T18:38:38.856Z,0.80
2019-02-28T18:41:08.853Z,0.65
2019-02-28T18:43:40.403Z,0.70
2019-02-28T18:46:09.853Z,0.60
2019-02-28T18:48:39.438Z,0.72
2019-02-28T18:51:09.148Z,0.57
2019-02-28T18:53:38.774Z,0.53
2019-02-28T18:56:08.542Z,0.62
2019-02-28T18:58:38.218Z,0.72
2019-02-28T19:01:07.988Z,0.70
2019-02-28T19:03:37.872Z,0.62
2019-02-28T19:06:07.731Z,0.60
2019-02-28T19:08:37.239Z,0.70
2019-02-28T19:11:06.868Z,0.53
2019-02-28T19:13:36.381Z,0.50
2019-02-28T19:16:06.039Z,0.60
2019-02-28T19:18:35.649Z,0.68
2019-02-28T19:21:05.241Z,0.75
2019-02-28T19:23:34.865Z,0.70
2019-02-28T19:26:04.439Z,0.80
2019-02-28T19:28:34.016Z,0.80
2019-02-28T19:31:03.595Z,0.85
2019-02-28T19:33:33.139Z,0.70
2019-02-28T19:36:02.638Z,0.70
2019-02-28T19:38:32.180Z,0.85
2019-02-28T19:41:03.753Z,0.65
2019-02-28T19:43:33.387Z,0.60
2019-02-28T19:46:03.906Z,0.60
2019-02-28T19:48:35.432Z,0.85
2019-02-28T19:51:05.127Z,0.80
2019-02-28T19:53:34.843Z,0.70
2019-02-28T19:56:04.611Z,0.70
2019-02-28T19:58:34.175Z,0.72
2019-02-28T20:01:03.678Z,0.60
2019-02-28T20:03:33.382Z,0.62
2019-02-28T20:06:03.040Z,0.95
2019-02-28T20:08:32.624Z,1.00
2019-02-28T20:11:02.237Z,0.70
2019-02-28T20:13:31.774Z,0.55
2019-02-28T20:16:01.479Z,1.15
2019-02-28T20:18:31.023Z,0.80
2019-02-28T20:21:00.607Z,0.80
2019-02-28T20:23:30.141Z,0.55
2019-02-28T20:25:59.650Z,0.70
2019-02-28T20:28:29.263Z,1.05
2019-02-28T20:30:58.910Z,1.07
2019-02-28T20:33:28.413Z,1.27
2019-02-28T20:36:01.175Z,1.10
2019-02-28T20:38:30.747Z,0.70
2019-02-28T20:41:00.252Z,1.17
2019-02-28T20:43:29.879Z,0.70
2019-02-28T20:45:59.407Z,0.98
2019-02-28T20:48:28.869Z,0.80
2019-02-28T20:50:58.541Z,0.93
2019-02-28T20:53:28.082Z,1.22
2019-02-28T20:55:57.703Z,0.88
2019-02-28T20:58:27.251Z,0.95
2019-02-28T21:00:56.935Z,0.72
2019-02-28T21:03:26.439Z,0.93
2019-02-28T21:05:56.047Z,0.70
2019-02-28T21:08:25.573Z,0.80
2019-02-28T21:10:55.071Z,0.75
2019-02-28T21:13:24.619Z,0.62
2019-02-28T21:15:54.145Z,0.72
2019-02-28T21:18:23.841Z,0.90
2019-02-28T21:20:53.449Z,0.90
2019-02-28T21:23:23.010Z,1.00
2019-02-28T21:25:52.561Z,0.98
2019-02-28T21:28:22.166Z,0.80
2019-02-28T21:30:51.746Z,0.75
2019-02-28T21:33:21.231Z,0.62
2019-02-28T21:35:50.823Z,0.53
2019-02-28T21:38:20.602Z,0.60
2019-02-28T21:40:50.078Z,0.72
2019-02-28T21:43:24.068Z,1.05
2019-02-28T21:45:53.536Z,0.60
2019-02-28T21:48:23.010Z,0.60
2019-02-28T21:50:52.559Z,0.88
2019-02-28T21:53:22.105Z,0.70
2019-02-28T21:55:51.628Z,0.70
2019-02-28T21:58:22.435Z,0.90
2019-02-28T22:00:52.040Z,0.93
2019-02-28T22:03:22.906Z,0.98
2019-02-28T22:05:52.782Z,0.60
2019-02-28T22:08:22.326Z,0.70
2019-02-28T22:10:52.293Z,1.02
2019-02-28T22:13:22.168Z,0.40
2019-02-28T22:15:51.701Z,0.70
2019-02-28T22:18:21.198Z,0.62
2019-02-28T22:20:50.723Z,0.70
2019-02-28T22:23:20.282Z,0.53
2019-02-28T22:25:49.903Z,0.70
2019-02-28T22:28:19.551Z,0.57
2019-02-28T22:31:05.406Z,0.82
2019-02-28T22:33:51.920Z,0.70
2019-02-28T22:36:25.644Z,0.70
2019-02-28T22:38:55.295Z,0.78
2019-02-28T22:41:24.865Z,0.60
2019-02-28T22:43:54.516Z,0.60
2019-02-28T22:46:24.085Z,0.78
2019-02-28T22:48:53.600Z,0.85
2019-02-28T22:51:23.171Z,0.60
2019-02-28T22:53:52.684Z,0.57
2019-02-28T22:56:22.199Z,0.70
2019-02-28T22:58:53.099Z,0.60
2019-02-28T23:01:24.933Z,0.62
2019-02-28T23:03:54.506Z,0.50
2019-02-28T23:06:24.150Z,0.60
2019-02-28T23:08:53.713Z,0.60
2019-02-28T23:11:23.220Z,0.62
2019-02-28T23:13:52.830Z,0.78
2019-02-28T23:16:22.402Z,0.75
2019-02-28T23:18:51.886Z,0.70
2019-02-28T23:21:21.411Z,0.60
2019-02-28T23:23:50.902Z,0.40
2019-02-28T23:26:25.736Z,0.78
2019-02-28T23:29:09.807Z,0.62
2019-02-28T23:32:27.573Z,0.60
2019-02-28T23:34:57.883Z,0.70
2019-02-28T23:37:27.406Z,0.70
2019-02-28T23:39:56.918Z,0.70
2019-02-28T23:42:26.464Z,0.90
2019-02-28T23:44:55.949Z,0.60
2019-02-28T23:47:25.471Z,0.65
2019-02-28T23:49:55.025Z,0.80
2019-02-28T23:52:24.479Z,0.50
2019-02-28T23:54:54.000Z,0.57
2019-02-28T23:57:24.597Z,0.57
2019-02-28T23:59:54.056Z,0.70
